Terminal Aerodrome Forecast
Issued by NWS Sterling, VA

Current Version | Previous Version | Graphics & Text | Print | Product List | Glossary On
Versions: 1 2 3 4 5 6 7 8 9 10 11 12 13 14 15 16 17 18 19 20 21
000
FTUS41 KLWX 251100
TAFIAD
TAF
KIAD 251139Z 2512/2618 VRB03KT P6SM FEW250
     FM251300 03004KT P6SM FEW250
     FM251900 09006KT P6SM FEW150
     FM260100 VRB03KT P6SM FEW150
     FM260600 00000KT 5SM MIFG SKC
     FM260900 00000KT 2SM BR SKC
     FM261200 VRB03KT P6SM SKC=

USA.gov is the U.S. government's official web portal to all federal, state and local government web resources and services.